Time;durP1;ratioP1;P1;durP2;ratioP2;P2;SDS_P1;SDS_P2;PMS_P1;PMS_P2;Temp;Humidity;BMP_temperature;BMP_pressure;BME280_temperature;BME280_humidity;BME280_pressure;Samples;Min_cycle;Max_cycle;Signal;HPM_P1;HPM_P2
2021/06/15 00:01:10;;;;;;;;;;;;;;;13.02;70.32;100494.72;1654584;87;20093;-86
2021/06/15 00:03:36;;;;;;;;;;;;;;;12.99;70.46;100491.83;1654488;87;20136;-86
2021/06/15 00:06:01;;;;;;;;;;;;;;;12.97;70.63;100485.83;1654509;87;20438;-85
2021/06/15 00:08:27;;;;;;;;;;;;;;;12.94;70.44;100483.91;1654489;87;20114;-86
2021/06/15 00:10:53;;;;;;;;;;;;;;;12.90;70.45;100477.53;1654689;87;20145;-86
2021/06/15 00:13:21;;;;;;;;;;;;;;;12.87;70.81;100476.45;1654258;87;20432;-85
2021/06/15 00:15:47;;;;;;;;;;;;;;;12.83;70.99;100473.70;1654225;86;20466;-86
2021/06/15 00:18:15;;;;;;;;;;;;;;;12.81;70.96;100480.06;1653737;87;20143;-86
2021/06/15 00:20:41;;;;;;;;;;;;;;;12.77;71.15;100477.31;1653291;86;20162;-86
2021/06/15 00:23:07;;;;;;;;;;;;;;;12.73;71.79;100474.52;1654337;86;20136;-87
2021/06/15 00:25:33;;;;;;;;;;;;;;;12.68;71.85;100478.88;1654654;87;20148;-86
2021/06/15 00:27:59;;;;;;;;;;;;;;;12.63;71.56;100469.95;1654355;87;20138;-86
2021/06/15 00:30:24;;;;;;;;;;;;;;;12.60;71.78;100462.73;1654363;86;20171;-87
2021/06/15 00:32:51;;;;;;;;;;;;;;;12.58;71.88;100463.36;1654011;86;20155;-86
2021/06/15 00:35:18;;;;;;;;;;;;;;;12.54;72.16;100462.76;1654264;87;20158;-86
2021/06/15 00:37:44;;;;;;;;;;;;;;;12.51;72.41;100462.16;1654068;86;20139;-87
2021/06/15 00:40:10;;;;;;;;;;;;;;;12.46;72.04;100462.50;1654321;87;20433;-87
2021/06/15 00:42:36;;;;;;;;;;;;;;;12.44;72.12;100471.06;1654215;87;20174;-87
2021/06/15 00:45:03;;;;;;;;;;;;;;;12.42;72.36;100469.00;1654414;86;20444;-87
2021/06/15 00:47:30;;;;;;;;;;;;;;;12.36;73.03;100467.67;1654284;86;20447;-86
2021/06/15 00:49:55;;;;;;;;;;;;;;;12.32;72.71;100472.84;1654697;87;20144;-87
2021/06/15 00:52:22;;;;;;;;;;;;;;;12.29;72.77;100473.56;1654155;87;20162;-87
2021/06/15 00:54:49;;;;;;;;;;;;;;;12.24;72.74;100470.41;1654244;87;20493;-87
2021/06/15 00:57:19;;;;;;;;;;;;;;;12.21;73.05;100471.52;1654066;87;20188;-87
2021/06/15 00:59:45;;;;;;;;;;;;;;;12.17;73.05;100467.41;1627988;87;20147;-86
2021/06/15 01:02:11;;;;;;;;;;;;;;;12.13;73.32;100468.61;1649507;87;20154;-87
2021/06/15 01:04:38;;;;;;;;;;;;;;;12.08;73.15;100459.71;1654271;87;20449;-87
2021/06/15 01:07:13;;;;;;;;;;;;;;;12.05;73.08;100455.98;1654220;87;20187;-87
2021/06/15 01:09:59;;;;;;;;;;;;;;;12.01;73.55;100454.53;1654311;87;20170;-87
2021/06/15 01:12:44;;;;;;;;;;;;;;;11.97;73.57;100443.81;1653738;87;20170;-87
2021/06/15 01:15:25;;;;;;;;;;;;;;;11.93;73.55;100445.01;1654314;87;20143;-87
2021/06/15 01:18:04;;;;;;;;;;;;;;;11.89;73.49;100437.80;1647375;87;20113;-87
2021/06/15 01:20:33;;;;;;;;;;;;;;;11.88;73.68;100440.56;1654454;86;20149;-86
2021/06/15 01:23:12;;;;;;;;;;;;;;;11.84;73.88;100439.06;1653335;87;20121;-87
2021/06/15 01:25:58;;;;;;;;;;;;;;;11.81;73.97;100436.65;1652069;86;20141;-87
2021/06/15 01:28:47;;;;;;;;;;;;;;;11.79;74.08;100439.91;1651614;87;20174;-88
2021/06/15 01:31:28;;;;;;;;;;;;;;;11.73;74.24;100442.05;1652911;87;20421;-87
2021/06/15 01:33:57;;;;;;;;;;;;;;;11.71;74.51;100443.98;1654197;87;20180;-88
2021/06/15 01:36:25;;;;;;;;;;;;;;;11.69;74.12;100438.44;1653940;87;20162;-88
2021/06/15 01:38:56;;;;;;;;;;;;;;;11.68;74.15;100430.13;1653662;87;20425;-87
2021/06/15 01:41:26;;;;;;;;;;;;;;;11.66;74.27;100431.57;1653716;86;20131;-87
2021/06/15 01:43:55;;;;;;;;;;;;;;;11.63;74.42;100430.48;1654150;87;20183;-88
2021/06/15 01:46:23;;;;;;;;;;;;;;;11.60;74.69;100424.10;1654197;87;20163;-87
2021/06/15 01:48:54;;;;;;;;;;;;;;;11.56;74.65;100422.66;1654478;86;20121;-87
2021/06/15 01:51:21;;;;;;;;;;;;;;;11.54;74.86;100425.88;1654688;86;20148;-87
2021/06/15 01:53:53;;;;;;;;;;;;;;;11.50;75.20;100417.83;1654656;86;20101;-88
2021/06/15 01:56:20;;;;;;;;;;;;;;;11.45;75.11;100417.31;1654742;86;20133;-88
2021/06/15 01:58:47;;;;;;;;;;;;;;;11.42;75.03;100408.33;1654511;87;20120;-87
2021/06/15 02:01:14;;;;;;;;;;;;;;;11.40;75.02;100411.06;1654680;86;20113;-87
2021/06/15 02:03:40;;;;;;;;;;;;;;;11.37;75.42;100409.97;1654559;86;20141;-87
2021/06/15 02:06:06;;;;;;;;;;;;;;;11.35;75.33;100407.94;1654647;87;20137;-88
2021/06/15 02:08:35;;;;;;;;;;;;;;;11.31;75.20;100406.46;1654602;86;20117;-88
2021/06/15 02:11:02;;;;;;;;;;;;;;;11.28;75.31;100408.84;1654653;86;20117;-88
2021/06/15 02:13:30;;;;;;;;;;;;;;;11.26;75.84;100412.09;1654439;87;20121;-88
2021/06/15 02:15:57;;;;;;;;;;;;;;;11.24;75.90;100407.39;1654814;87;20133;-88
2021/06/15 02:18:25;;;;;;;;;;;;;;;11.19;75.52;100401.62;1654231;86;20179;-87
2021/06/15 02:20:51;;;;;;;;;;;;;;;11.17;76.07;100399.56;1654083;87;20227;-87
2021/06/15 02:23:22;;;;;;;;;;;;;;;11.15;75.90;100394.86;1654205;87;20146;-88
2021/06/15 02:25:53;;;;;;;;;;;;;;;11.14;76.02;100401.11;1654531;87;20175;-88
2021/06/15 02:28:20;;;;;;;;;;;;;;;11.12;76.07;100404.81;1654369;87;20106;-87
2021/06/15 02:30:46;;;;;;;;;;;;;;;11.08;76.09;100402.03;1654599;87;20133;-88
2021/06/15 02:33:14;;;;;;;;;;;;;;;11.04;76.03;100408.86;1654421;86;20157;-88
2021/06/15 02:35:47;;;;;;;;;;;;;;;11.02;76.15;100406.83;1654732;86;20140;-88
2021/06/15 02:38:20;;;;;;;;;;;;;;;10.99;76.08;100400.45;1654620;86;20170;-88
2021/06/15 02:40:46;;;;;;;;;;;;;;;10.99;76.06;100395.63;1654568;86;20137;-88
2021/06/15 02:43:13;;;;;;;;;;;;;;;10.98;76.07;100405.83;1654630;86;20843;-88
2021/06/15 02:45:40;;;;;;;;;;;;;;;10.96;76.07;100403.80;1654631;86;20170;-88
2021/06/15 02:48:07;;;;;;;;;;;;;;;10.94;76.11;100403.89;1654555;87;20163;-88
2021/06/15 02:50:35;;;;;;;;;;;;;;;10.92;76.41;100410.23;1654379;87;20158;-89
2021/06/15 02:53:07;;;;;;;;;;;;;;;10.91;76.29;100415.98;1654085;86;20508;-89
2021/06/15 02:55:38;;;;;;;;;;;;;;;10.90;76.13;100417.44;1654450;87;20163;-89
2021/06/15 02:58:04;;;;;;;;;;;;;;;10.87;76.30;100421.13;1653575;86;20109;-88
2021/06/15 03:00:30;;;;;;;;;;;;;;;10.87;76.50;100422.94;1654786;86;20424;-88
2021/06/15 03:02:57;;;;;;;;;;;;;;;10.86;76.22;100428.70;1654500;86;20125;-88
2021/06/15 03:05:23;;;;;;;;;;;;;;;10.84;76.33;100428.44;1654453;86;20129;-88
2021/06/15 03:07:49;;;;;;;;;;;;;;;10.84;76.39;100435.03;1654399;86;20175;-88
2021/06/15 03:10:17;;;;;;;;;;;;;;;10.81;76.57;100433.45;1654371;86;20139;-88
2021/06/15 03:12:51;;;;;;;;;;;;;;;10.76;76.65;100431.64;1654075;86;20166;-88
2021/06/15 03:15:20;;;;;;;;;;;;;;;10.75;76.93;100431.25;1654367;87;20150;-88
2021/06/15 03:17:49;;;;;;;;;;;;;;;10.73;76.93;100437.97;1653434;87;20158;-88
2021/06/15 03:20:16;;;;;;;;;;;;;;;10.73;76.88;100437.97;1653765;87;20118;-87
2021/06/15 03:23:06;;;;;;;;;;;;;;;10.74;77.29;100429.09;1654335;86;20195;-88
2021/06/15 03:25:34;;;;;;;;;;;;;;;10.73;77.76;100434.02;1653651;87;20133;-88
2021/06/15 03:28:03;;;;;;;;;;;;;;;10.73;77.92;100439.77;1654421;86;20157;-88
2021/06/15 03:30:30;;;;;;;;;;;;;;;10.72;77.91;100433.63;1654451;86;20097;-88
2021/06/15 03:33:05;;;;;;;;;;;;;;;10.75;77.68;100436.05;1654525;86;20188;-88
2021/06/15 03:35:33;;;;;;;;;;;;;;;10.76;77.99;100435.59;1654519;86;20457;-88
2021/06/15 03:38:01;;;;;;;;;;;;;;;10.77;78.15;100440.75;1654488;86;20189;-88
2021/06/15 03:40:28;;;;;;;;;;;;;;;10.79;78.34;100444.13;1654501;86;20164;-88
2021/06/15 03:42:55;;;;;;;;;;;;;;;10.82;78.27;100447.00;1654274;87;20432;-88
2021/06/15 03:45:25;;;;;;;;;;;;;;;10.85;78.17;100443.31;1654339;87;20148;-88
2021/06/15 03:47:51;;;;;;;;;;;;;;;10.87;78.32;100444.05;1654179;86;20489;-88
2021/06/15 03:50:19;;;;;;;;;;;;;;;10.89;78.97;100440.81;1634740;87;20173;-88
2021/06/15 03:52:46;;;;;;;;;;;;;;;10.91;78.50;100441.07;1653304;86;20167;-88
2021/06/15 03:55:13;;;;;;;;;;;;;;;10.94;78.75;100444.81;1653858;86;20392;-88
2021/06/15 03:57:43;;;;;;;;;;;;;;;10.97;78.73;100446.39;1654483;87;20133;-88
2021/06/15 04:00:11;;;;;;;;;;;;;;;11.00;78.47;100436.45;1654272;86;20132;-88
2021/06/15 04:02:39;;;;;;;;;;;;;;;11.02;78.47;100437.20;1653849;87;20129;-88
2021/06/15 04:05:06;;;;;;;;;;;;;;;11.08;78.16;100439.01;1654497;87;20113;-88
2021/06/15 04:07:33;;;;;;;;;;;;;;;11.12;79.22;100438.69;1640957;87;20117;-87
2021/06/15 04:09:59;;;;;;;;;;;;;;;11.14;79.39;100432.80;1654056;86;20566;-88
2021/06/15 04:12:25;;;;;;;;;;;;;;;11.18;79.40;100436.05;1654337;87;20121;-88
2021/06/15 04:14:51;;;;;;;;;;;;;;;11.22;79.54;100430.91;1627919;88;20108;-88
2021/06/15 04:17:21;;;;;;;;;;;;;;;11.24;79.57;100429.01;1629763;87;20159;-88
2021/06/15 04:19:49;;;;;;;;;;;;;;;11.27;79.75;100439.34;1636620;87;20187;-88
2021/06/15 04:22:16;;;;;;;;;;;;;;;11.31;80.02;100436.84;1653648;87;20167;-87
2021/06/15 04:24:47;;;;;;;;;;;;;;;11.36;79.28;100433.87;1654222;86;20212;-88
2021/06/15 04:27:14;;;;;;;;;;;;;;;11.40;79.49;100443.25;1627839;88;20115;-88
2021/06/15 04:29:42;;;;;;;;;;;;;;;11.44;79.65;100440.73;1616539;87;20488;-88
2021/06/15 04:32:09;;;;;;;;;;;;;;;11.48;79.34;100432.94;1625937;87;20109;-88
2021/06/15 04:34:38;;;;;;;;;;;;;;;11.52;79.73;100434.42;1623154;87;20137;-88
2021/06/15 04:37:06;;;;;;;;;;;;;;;11.56;79.26;100437.19;1650667;87;20464;-88
2021/06/15 04:39:38;;;;;;;;;;;;;;;11.61;79.50;100432.38;1635552;85;20111;-88
2021/06/15 04:42:10;;;;;;;;;;;;;;;11.67;79.64;100435.89;1652395;85;20157;-87
2021/06/15 04:44:42;;;;;;;;;;;;;;;11.72;79.76;100434.24;1648972;87;20431;-87
2021/06/15 04:47:16;;;;;;;;;;;;;;;11.78;80.02;100436.87;1642700;85;20433;-87
2021/06/15 04:50:04;;;;;;;;;;;;;;;11.83;80.13;100441.35;1654250;86;20168;-87
2021/06/15 04:52:30;;;;;;;;;;;;;;;11.88;79.89;100441.41;1652810;87;20159;-88
2021/06/15 04:54:57;;;;;;;;;;;;;;;11.95;79.57;100447.07;1654235;87;20469;-88
2021/06/15 04:57:26;;;;;;;;;;;;;;;12.01;79.66;100449.70;1653818;87;20182;-88
2021/06/15 04:59:55;;;;;;;;;;;;;;;12.05;79.45;100434.82;1654240;87;20191;-88
2021/06/15 05:02:22;;;;;;;;;;;;;;;12.12;79.49;100443.13;1654274;87;20167;-88
2021/06/15 05:04:49;;;;;;;;;;;;;;;12.18;79.57;100446.14;1654468;87;20183;-88
2021/06/15 05:07:17;;;;;;;;;;;;;;;12.24;79.50;100443.96;1652826;87;20131;-87
2021/06/15 05:09:43;;;;;;;;;;;;;;;12.30;79.70;100443.48;1654255;87;20156;-88
2021/06/15 05:12:09;;;;;;;;;;;;;;;12.37;79.74;100445.56;1654029;86;20187;-88
2021/06/15 05:14:37;;;;;;;;;;;;;;;12.44;79.74;100445.44;1654483;87;20199;-88
2021/06/15 05:17:04;;;;;;;;;;;;;;;12.51;79.80;100448.44;1654278;86;20179;-88
2021/06/15 05:19:30;;;;;;;;;;;;;;;12.60;80.02;100454.34;1631388;87;20148;-88
2021/06/15 05:22:05;;;;;;;;;;;;;;;12.67;80.40;100448.91;1654180;87;20171;-88
2021/06/15 05:24:49;;;;;;;;;;;;;;;12.76;80.34;100451.77;1654435;87;20150;-88
2021/06/15 05:27:24;;;;;;;;;;;;;;;12.83;79.99;100448.99;1653982;87;20135;-88
2021/06/15 05:29:50;;;;;;;;;;;;;;;12.92;79.81;100445.61;1653480;87;20143;-88
2021/06/15 05:32:16;;;;;;;;;;;;;;;12.99;80.08;100441.50;1654284;87;20196;-88
2021/06/15 05:34:42;;;;;;;;;;;;;;;13.08;80.30;100444.73;1650254;86;20134;-88
2021/06/15 05:37:08;;;;;;;;;;;;;;;13.17;80.29;100440.99;1654481;86;20105;-88
2021/06/15 05:39:36;;;;;;;;;;;;;;;13.25;80.44;100440.73;1654492;86;20141;-88
2021/06/15 05:42:02;;;;;;;;;;;;;;;13.35;80.24;100440.33;1653957;86;20315;-88
2021/06/15 05:44:28;;;;;;;;;;;;;;;13.44;79.55;100444.05;1654298;86;20121;-88
2021/06/15 05:46:53;;;;;;;;;;;;;;;13.52;79.92;100452.22;1654181;86;20160;-88
2021/06/15 05:49:19;;;;;;;;;;;;;;;13.62;79.74;100453.59;1654487;87;20133;-88
2021/06/15 05:51:45;;;;;;;;;;;;;;;13.71;79.46;100451.50;1654336;86;20141;-88
2021/06/15 05:54:11;;;;;;;;;;;;;;;13.80;79.31;100457.37;1654034;87;20141;-88
2021/06/15 05:56:37;;;;;;;;;;;;;;;13.89;78.72;100452.28;1654248;86;20144;-88
2021/06/15 05:59:03;;;;;;;;;;;;;;;13.97;78.87;100457.27;1654397;86;20137;-88
2021/06/15 06:01:28;;;;;;;;;;;;;;;14.07;79.08;100458.17;1654274;86;20150;-88
2021/06/15 06:04:13;;;;;;;;;;;;;;;14.16;79.41;100452.58;1654345;86;20957;-88
2021/06/15 06:09:19;;;;;;;;;;;;;;;14.35;79.30;100441.71;1654164;87;20467;-88
2021/06/15 06:11:44;;;;;;;;;;;;;;;14.46;79.38;100440.28;1654279;86;20141;-88
2021/06/15 06:14:11;;;;;;;;;;;;;;;14.57;79.14;100449.98;1654430;86;20128;-88
2021/06/15 06:16:37;;;;;;;;;;;;;;;14.64;78.41;100448.02;1654188;86;20128;-88
2021/06/15 06:19:04;;;;;;;;;;;;;;;14.74;77.91;100450.67;1654328;86;20141;-88
2021/06/15 06:21:33;;;;;;;;;;;;;;;14.84;77.30;100453.36;1654387;86;20117;-88
2021/06/15 06:24:04;;;;;;;;;;;;;;;14.93;77.61;100451.22;1654304;86;20124;-88
2021/06/15 06:26:30;;;;;;;;;;;;;;;15.05;77.51;100458.59;1654408;87;20101;-88
2021/06/15 06:28:56;;;;;;;;;;;;;;;15.16;77.97;100463.78;1654186;86;20483;-88
2021/06/15 06:31:22;;;;;;;;;;;;;;;15.26;77.32;100456.66;1654278;86;20117;-88
2021/06/15 06:33:47;;;;;;;;;;;;;;;15.37;76.92;100460.53;1654280;86;20141;-88
2021/06/15 06:36:14;;;;;;;;;;;;;;;15.48;76.73;100457.73;1654257;87;20165;-89
2021/06/15 06:38:40;;;;;;;;;;;;;;;15.58;76.55;100455.56;1654199;86;20166;-89
2021/06/15 06:41:06;;;;;;;;;;;;;;;15.66;76.23;100455.25;1654286;86;20164;-89
2021/06/15 06:43:31;;;;;;;;;;;;;;;15.76;75.75;100454.37;1654216;86;20424;-88
2021/06/15 06:45:57;;;;;;;;;;;;;;;15.86;75.91;100459.20;1654375;86;20113;-89
2021/06/15 06:48:23;;;;;;;;;;;;;;;15.96;75.92;100462.71;1654190;86;20104;-89
2021/06/15 06:50:49;;;;;;;;;;;;;;;16.06;75.57;100466.69;1654397;86;20435;-89
2021/06/15 06:53:15;;;;;;;;;;;;;;;16.15;75.58;100461.80;1654270;86;20137;-89
2021/06/15 06:55:41;;;;;;;;;;;;;;;16.23;75.08;100457.95;1654309;86;20109;-89
2021/06/15 06:58:06;;;;;;;;;;;;;;;16.35;75.13;100461.26;1654309;86;20522;-89
2021/06/15 07:00:33;;;;;;;;;;;;;;;16.46;75.56;100461.59;1654522;87;20144;-89
2021/06/15 07:02:59;;;;;;;;;;;;;;;16.56;75.25;100455.73;1654207;86;20134;-90
2021/06/15 07:05:25;;;;;;;;;;;;;;;16.66;74.83;100451.20;1654409;86;20144;-89
2021/06/15 07:07:52;;;;;;;;;;;;;;;16.77;74.13;100454.18;1654567;86;20097;-90
2021/06/15 07:10:21;;;;;;;;;;;;;;;16.89;74.03;100450.34;1654513;86;20140;-91
2021/06/15 07:12:48;;;;;;;;;;;;;;;16.99;73.93;100447.61;1654483;86;20264;-90
2021/06/15 07:15:14;;;;;;;;;;;;;;;17.07;72.85;100443.19;1654643;86;20132;-90
2021/06/15 07:17:40;;;;;;;;;;;;;;;17.17;72.40;100448.95;1654523;87;20430;-89
2021/06/15 07:20:08;;;;;;;;;;;;;;;17.27;72.78;100447.89;1650645;86;20133;-90
2021/06/15 07:22:33;;;;;;;;;;;;;;;17.39;73.13;100449.84;1654417;86;20325;-91
2021/06/15 07:24:59;;;;;;;;;;;;;;;17.51;72.95;100451.80;1654583;86;20459;-91
2021/06/15 07:27:25;;;;;;;;;;;;;;;17.61;73.01;100452.55;1654331;86;20164;-91
2021/06/15 07:29:51;;;;;;;;;;;;;;;17.72;72.59;100453.64;1654567;87;20143;-91
2021/06/15 07:32:17;;;;;;;;;;;;;;;17.84;71.53;100454.78;1654439;86;20442;-90
2021/06/15 07:34:43;;;;;;;;;;;;;;;17.94;70.90;100463.02;1654756;86;20097;-90
2021/06/15 07:37:08;;;;;;;;;;;;;;;18.04;71.32;100462.42;1654463;86;20105;-90
2021/06/15 07:39:34;;;;;;;;;;;;;;;18.14;70.50;100458.32;1654821;86;20420;-91
2021/06/15 07:42:00;;;;;;;;;;;;;;;18.24;70.48;100456.38;1654503;86;20148;-91
2021/06/15 07:44:26;;;;;;;;;;;;;;;18.36;70.59;100452.09;1654894;86;20144;-91
2021/06/15 07:46:54;;;;;;;;;;;;;;;18.45;69.82;100451.14;1654649;86;20133;-91
2021/06/15 07:49:20;;;;;;;;;;;;;;;18.56;69.89;100446.01;1654433;86;20168;-88
2021/06/15 07:51:45;;;;;;;;;;;;;;;18.65;70.11;100449.06;1654396;86;20144;-91
2021/06/15 07:54:11;;;;;;;;;;;;;;;18.76;69.78;100447.98;1654822;86;20169;-92
2021/06/15 07:56:37;;;;;;;;;;;;;;;18.88;69.88;100439.48;1654708;86;20149;-91
2021/06/15 07:59:02;;;;;;;;;;;;;;;19.03;69.66;100438.88;1654657;86;20102;-91
2021/06/15 08:01:28;;;;;;;;;;;;;;;19.13;68.22;100437.72;1654908;86;20120;-90
2021/06/15 08:03:54;;;;;;;;;;;;;;;19.21;68.47;100436.39;1654803;86;20117;-91
2021/06/15 08:06:20;;;;;;;;;;;;;;;19.32;68.49;100437.09;1654568;86;20117;-91
2021/06/15 08:08:45;;;;;;;;;;;;;;;19.41;68.66;100443.63;1646338;86;20477;-90
2021/06/15 08:11:11;;;;;;;;;;;;;;;19.53;68.57;100453.49;1630519;87;20139;-91
2021/06/15 08:13:37;;;;;;;;;;;;;;;19.66;68.90;100449.02;1626700;88;20449;-91
2021/06/15 08:16:04;;;;;;;;;;;;;;;19.78;68.59;100450.36;1626997;87;20135;-91
2021/06/15 08:18:29;;;;;;;;;;;;;;;19.89;67.38;100449.17;1626660;88;20445;-90
2021/06/15 08:20:56;;;;;;;;;;;;;;;20.01;65.85;100441.13;1626822;87;20127;-91
2021/06/15 08:23:23;;;;;;;;;;;;;;;20.08;66.24;100447.48;1626786;87;20151;-90
2021/06/15 08:25:49;;;;;;;;;;;;;;;20.21;65.86;100453.65;1626964;87;20406;-92
2021/06/15 08:28:15;;;;;;;;;;;;;;;20.33;65.90;100454.94;1626701;88;20111;-89
2021/06/15 08:30:41;;;;;;;;;;;;;;;20.43;65.40;100446.70;1626650;88;20096;-89
2021/06/15 08:33:07;;;;;;;;;;;;;;;20.51;64.93;100451.25;1626667;88;20147;-89
2021/06/15 08:35:33;;;;;;;;;;;;;;;20.58;65.39;100450.37;1626760;88;20449;-89
2021/06/15 08:37:59;;;;;;;;;;;;;;;20.69;65.08;100445.12;1626671;87;20119;-89
2021/06/15 08:40:25;;;;;;;;;;;;;;;20.81;64.94;100444.25;1626706;87;20138;-90
2021/06/15 08:42:51;;;;;;;;;;;;;;;20.90;64.42;100447.74;1626560;88;20143;-91
2021/06/15 08:45:19;;;;;;;;;;;;;;;21.01;64.37;100442.80;1626702;88;20156;-88
2021/06/15 08:47:48;;;;;;;;;;;;;;;21.11;63.35;100439.06;1626701;87;20184;-92
2021/06/15 08:50:18;;;;;;;;;;;;;;;21.18;63.11;100436.00;1626120;88;20540;-89
2021/06/15 08:52:45;;;;;;;;;;;;;;;21.24;62.12;100435.29;1626465;87;20168;-90
2021/06/15 08:55:12;;;;;;;;;;;;;;;21.32;63.01;100435.22;1626684;88;20115;-90
2021/06/15 08:57:38;;;;;;;;;;;;;;;21.38;63.74;100430.52;1626768;88;20134;-91
2021/06/15 09:00:07;;;;;;;;;;;;;;;21.46;63.43;100436.34;1627057;87;20131;-90
2021/06/15 09:02:44;;;;;;;;;;;;;;;21.58;63.42;100440.77;1626748;87;20127;-90
2021/06/15 09:05:12;;;;;;;;;;;;;;;21.70;62.87;100436.65;1638266;87;20151;-92
2021/06/15 09:08:04;;;;;;;;;;;;;;;21.85;62.96;100435.33;1645297;86;20144;-91
2021/06/15 09:10:35;;;;;;;;;;;;;;;21.94;62.29;100438.27;1650132;87;20138;-92
2021/06/15 09:13:01;;;;;;;;;;;;;;;22.03;61.95;100432.31;1644733;86;20121;-92
2021/06/15 09:15:28;;;;;;;;;;;;;;;22.11;61.01;100430.88;1637580;87;20147;-91
2021/06/15 09:17:53;;;;;;;;;;;;;;;22.13;60.35;100426.16;1639067;86;20104;-90
2021/06/15 09:20:27;;;;;;;;;;;;;;;22.15;60.79;100430.37;1646847;86;20147;-91
2021/06/15 09:22:59;;;;;;;;;;;;;;;22.22;61.41;100430.47;1639020;85;20422;-91
2021/06/15 09:25:26;;;;;;;;;;;;;;;22.32;61.20;100431.02;1637338;85;20473;-90
2021/06/15 09:27:53;;;;;;;;;;;;;;;22.40;60.31;100421.50;1642725;86;20156;-91
2021/06/15 09:30:21;;;;;;;;;;;;;;;22.48;59.22;100418.73;1639465;87;20179;-91
2021/06/15 09:32:46;;;;;;;;;;;;;;;22.54;59.06;100413.62;1634339;87;20145;-91
2021/06/15 09:35:20;;;;;;;;;;;;;;;22.59;59.24;100414.73;1641608;87;20126;-92
2021/06/15 09:37:54;;;;;;;;;;;;;;;22.67;60.41;100413.78;1642838;86;20441;-90
2021/06/15 09:40:28;;;;;;;;;;;;;;;22.81;60.82;100416.15;1647921;87;20140;-90
2021/06/15 09:43:11;;;;;;;;;;;;;;;22.93;59.78;100418.19;1642524;86;20135;-91
2021/06/15 09:45:47;;;;;;;;;;;;;;;23.01;59.10;100415.89;1641186;87;20462;-90
2021/06/15 09:48:36;;;;;;;;;;;;;;;23.08;58.52;100422.17;1642803;87;20105;-91
2021/06/15 09:51:09;;;;;;;;;;;;;;;23.11;58.29;100419.09;1643550;87;20127;-91
2021/06/15 09:53:43;;;;;;;;;;;;;;;23.16;58.31;100422.06;1644374;87;20139;-91
2021/06/15 09:56:10;;;;;;;;;;;;;;;23.27;57.69;100421.23;1641492;87;20462;-90
2021/06/15 09:58:44;;;;;;;;;;;;;;;23.38;56.81;100416.16;1664870;85;20142;-91
2021/06/15 10:01:26;;;;;;;;;;;;;;;23.48;57.99;100417.69;1666268;85;20139;-92
2021/06/15 10:04:12;;;;;;;;;;;;;;;23.59;57.50;100411.77;1660270;85;20125;-90
2021/06/15 10:06:46;;;;;;;;;;;;;;;23.67;57.33;100406.27;1654455;86;20133;-89
2021/06/15 10:09:13;;;;;;;;;;;;;;;23.77;57.68;100407.30;1654565;86;20145;-89
2021/06/15 10:11:40;;;;;;;;;;;;;;;23.88;54.36;100411.62;1654707;87;20140;-93
2021/06/15 10:14:06;;;;;;;;;;;;;;;23.90;56.61;100406.58;1655822;85;20161;-94
2021/06/15 10:16:32;;;;;;;;;;;;;;;23.96;55.87;100410.66;1654951;86;20098;-95
2021/06/15 10:18:59;;;;;;;;;;;;;;;24.08;56.88;100411.76;1654847;86;20439;-93
2021/06/15 10:21:25;;;;;;;;;;;;;;;24.25;56.75;100411.44;1654365;87;20302;-95
2021/06/15 10:23:51;;;;;;;;;;;;;;;24.35;56.99;100405.20;1654353;86;20125;-94
2021/06/15 10:26:17;;;;;;;;;;;;;;;24.44;56.76;100409.41;1641855;86;20144;-96
2021/06/15 10:28:43;;;;;;;;;;;;;;;24.56;56.36;100402.41;1630667;87;20092;-93
2021/06/15 10:31:08;;;;;;;;;;;;;;;24.69;55.82;100396.77;1645566;87;20126;-92
2021/06/15 10:33:46;;;;;;;;;;;;;;;24.82;56.46;100399.51;1642909;86;20146;-94
2021/06/15 10:36:12;;;;;;;;;;;;;;;24.91;55.23;100394.73;1655083;86;20125;-95
2021/06/15 10:38:43;;;;;;;;;;;;;;;25.00;55.51;100399.75;1654673;86;20419;-95
2021/06/15 10:41:23;;;;;;;;;;;;;;;25.09;55.06;100400.41;1655117;86;20137;-92
2021/06/15 10:43:55;;;;;;;;;;;;;;;25.17;54.48;100395.35;1654462;86;20144;-95
2021/06/15 10:46:23;;;;;;;;;;;;;;;25.20;54.08;100394.42;1655009;86;20419;-91
2021/06/15 10:49:14;;;;;;;;;;;;;;;25.20;53.38;100386.84;1645057;86;20104;-96
2021/06/15 10:51:57;;;;;;;;;;;;;;;25.20;53.41;100384.14;1637317;87;20109;-94
2021/06/15 10:54:41;;;;;;;;;;;;;;;25.26;53.98;100386.02;1649994;87;20146;-91
2021/06/15 10:57:23;;;;;;;;;;;;;;;25.35;52.92;100379.91;1642816;86;20117;-96
2021/06/15 11:00:12;;;;;;;;;;;;;;;25.44;53.45;100380.03;1626947;87;20108;-96
2021/06/15 11:02:39;;;;;;;;;;;;;;;25.53;52.63;100380.11;1626665;87;20444;-93
2021/06/15 11:05:43;;;;;;;;;;;;;;;25.60;53.04;100383.67;1626959;87;20116;-96
2021/06/15 11:08:18;;;;;;;;;;;;;;;25.64;52.16;100374.62;1649624;86;20107;-93
2021/06/15 11:11:01;;;;;;;;;;;;;;;25.67;52.45;100376.91;1646379;87;20123;-93
2021/06/15 11:13:47;;;;;;;;;;;;;;;25.71;52.83;100373.57;1642521;86;20156;-94
2021/06/15 11:16:40;;;;;;;;;;;;;;;25.79;52.65;100369.81;1638028;86;20131;-92
2021/06/15 11:19:10;;;;;;;;;;;;;;;25.83;51.50;100364.35;1633924;87;20109;-94
2021/06/15 11:21:54;;;;;;;;;;;;;;;25.85;51.61;100362.77;1654922;87;20145;-94
2021/06/15 11:24:29;;;;;;;;;;;;;;;25.90;51.57;100362.98;1653199;87;20136;-96
2021/06/15 11:26:57;;;;;;;;;;;;;;;25.99;52.37;100365.75;1653174;87;20129;-90
2021/06/15 11:29:41;;;;;;;;;;;;;;;26.05;49.90;100358.15;1639959;86;20155;-93
2021/06/15 11:32:27;;;;;;;;;;;;;;;26.05;50.79;100359.50;1637730;87;20149;-93
2021/06/15 11:34:59;;;;;;;;;;;;;;;26.07;50.64;100357.43;1631926;87;20145;-95
2021/06/15 11:37:33;;;;;;;;;;;;;;;26.13;51.59;100352.53;1639071;86;20108;-93
2021/06/15 11:40:18;;;;;;;;;;;;;;;26.19;50.64;100353.03;1639395;87;20143;-92
2021/06/15 11:42:52;;;;;;;;;;;;;;;26.24;50.19;100347.50;1652935;86;20140;-94
2021/06/15 11:45:21;;;;;;;;;;;;;;;26.28;49.49;100345.49;1653586;85;20172;-92
2021/06/15 11:47:55;;;;;;;;;;;;;;;26.33;48.56;100347.58;1654673;87;20097;-96
2021/06/15 11:50:34;;;;;;;;;;;;;;;26.36;49.05;100334.45;1647545;86;20169;-88
2021/06/15 11:53:11;;;;;;;;;;;;;;;26.40;47.92;100338.37;1645945;87;20115;-91
2021/06/15 11:55:42;;;;;;;;;;;;;;;26.49;49.23;100337.66;1645504;86;20322;-88
2021/06/15 11:58:12;;;;;;;;;;;;;;;26.58;48.39;100342.27;1648945;86;20416;-87
2021/06/15 12:00:41;;;;;;;;;;;;;;;26.63;49.47;100327.06;1654009;86;20144;-89
2021/06/15 12:03:18;;;;;;;;;;;;;;;26.69;49.01;100325.86;1653779;86;20132;-90
2021/06/15 12:05:49;;;;;;;;;;;;;;;26.74;48.73;100325.53;1654249;87;20133;-89
2021/06/15 12:08:16;;;;;;;;;;;;;;;26.78;48.67;100324.04;1627923;86;20111;-89
2021/06/15 12:10:43;;;;;;;;;;;;;;;26.81;48.42;100316.02;1625220;88;20103;-88
2021/06/15 12:13:20;;;;;;;;;;;;;;;26.82;48.41;100321.23;1624732;88;20128;-88
2021/06/15 12:15:53;;;;;;;;;;;;;;;26.84;47.09;100315.58;1625214;88;20115;-88
2021/06/15 12:18:26;;;;;;;;;;;;;;;26.86;48.15;100308.08;1624589;88;20199;-88
2021/06/15 12:20:55;;;;;;;;;;;;;;;26.94;48.10;100302.39;1625006;88;20111;-88
2021/06/15 12:23:33;;;;;;;;;;;;;;;27.03;48.19;100298.37;1624804;88;20135;-85
2021/06/15 12:26:20;;;;;;;;;;;;;;;27.08;47.28;100297.70;1626194;87;20414;-89
2021/06/15 12:28:58;;;;;;;;;;;;;;;27.07;46.77;100292.81;1626405;88;20123;-86
2021/06/15 12:31:29;;;;;;;;;;;;;;;27.07;46.70;100298.23;1626217;87;20107;-87
2021/06/15 12:33:59;;;;;;;;;;;;;;;27.02;46.03;100290.48;1626503;87;20111;-88
2021/06/15 12:36:28;;;;;;;;;;;;;;;27.00;46.69;100290.69;1626097;87;20454;-87
2021/06/15 12:38:56;;;;;;;;;;;;;;;27.03;46.02;100292.95;1626455;88;20478;-88
2021/06/15 12:41:23;;;;;;;;;;;;;;;27.09;47.55;100288.02;1625178;88;20112;-88
2021/06/15 12:43:51;;;;;;;;;;;;;;;27.15;46.19;100287.70;1626473;88;20108;-90
2021/06/15 12:46:20;;;;;;;;;;;;;;;27.19;47.04;100288.91;1626569;88;20172;-89
2021/06/15 12:48:53;;;;;;;;;;;;;;;27.17;45.54;100292.88;1625756;87;20142;-89
2021/06/15 12:51:21;;;;;;;;;;;;;;;27.13;46.33;100293.85;1625555;88;20127;-86